Time;durP1;ratioP1;P1;durP2;ratioP2;P2;SDS_P1;SDS_P2;PMS_P1;PMS_P2;Temp;Humidity;BMP_temperature;BMP_pressure;BME280_temperature;BME280_humidity;BME280_pressure;Samples;Min_cycle;Max_cycle;Signal;HPM_P1;HPM_P2
2022/03/16 00:00:51;;;;;;;;;;;;;;;;;;;;;
2022/03/16 00:14:39;;;;;;;23.45;18.35;;;7.50;99.90;;;;;;4869399;29;20035;-84
2022/03/16 00:17:52;;;;;;;22.63;19.73;;;7.60;99.90;;;;;;4867955;29;20041;-85
2022/03/16 00:31:41;;;;;;;20.52;18.02;;;7.50;99.90;;;;;;4830704;29;20133;-87
2022/03/16 01:02:09;;;;;;;22.85;18.85;;;7.50;99.90;;;;;;4821414;29;20478;-86
2022/03/16 02:14:07;;;;;;;;;;;;;;;;;;;;;
2022/03/16 02:20:27;;;;;;;;;;;;;;;;;;;;;
2022/03/16 02:24:27;;;;;;;;;;;;;;;;;;;;;
2022/03/16 02:48:07;;;;;;;;;;;;;;;;;;;;;
2022/03/16 02:50:31;;;;;;;18.83;13.32;;;9.10;99.90;;;;;;4901321;29;20095;-86
2022/03/16 02:54:02;;;;;;;;;;;;;;;;;;;;;
2022/03/16 02:56:36;;;;;;;17.67;14.38;;;9.20;99.90;;;;;;4862265;29;20041;-85
2022/03/16 03:11:01;;;;;;;18.52;14.43;;;9.20;99.90;;;;;;4811967;29;20113;-85
2022/03/16 03:45:09;;;;;;;21.35;16.50;;;9.10;99.90;;;;;;5044643;28;20438;-86
2022/03/16 04:42:09;;;;;;;;;;;;;;;;;;;;;
2022/03/16 04:58:17;;;;;;;;;;;;;;;;;;;;;
2022/03/16 05:07:35;;;;;;;17.63;15.50;;;9.40;99.90;;;;;;4775880;29;20523;-85
2022/03/16 05:11:10;;;;;;;18.45;15.05;;;9.40;99.90;;;;;;4828674;29;20052;-86
2022/03/16 05:14:09;;;;;;;17.33;15.10;;;9.50;99.90;;;;;;4848156;29;20046;-86
2022/03/16 05:24:06;;;;;;;17.63;13.77;;;9.50;99.90;;;;;;4825184;29;20040;-86
2022/03/16 05:26:52;;;;;;;19.75;15.05;;;9.60;99.90;;;;;;4826976;29;20049;-86
2022/03/16 05:29:23;;;;;;;17.15;14.15;;;9.60;99.90;;;;;;4889607;29;20416;-85
2022/03/16 05:31:59;;;;;;;18.85;14.23;;;9.60;99.90;;;;;;5037799;28;20038;-86
2022/03/16 05:34:34;;;;;;;18.90;14.48;;;9.60;99.90;;;;;;5038262;28;20060;-85
2022/03/16 05:37:12;;;;;;;16.83;14.30;;;9.70;99.90;;;;;;5041448;28;20442;-86
2022/03/16 05:40:00;;;;;;;;;;;;;;;;;;;;;
2022/03/16 05:42:56;;;;;;;19.02;14.13;;;9.70;99.90;;;;;;5041947;28;20023;-87
2022/03/16 05:45:33;;;;;;;19.95;13.98;;;9.80;99.90;;;;;;5036935;28;20120;-87
2022/03/16 05:47:59;;;;;;;15.07;13.32;;;9.80;99.90;;;;;;5049989;28;20039;-86
2022/03/16 05:50:44;;;;;;;15.80;14.05;;;9.80;99.90;;;;;;5037507;28;20037;-86
2022/03/16 05:53:23;;;;;;;17.83;14.30;;;9.90;99.90;;;;;;5039604;28;20451;-85
2022/03/16 05:55:49;;;;;;;19.98;14.07;;;9.90;99.90;;;;;;5045265;28;20422;-85
2022/03/16 05:58:16;;;;;;;16.83;13.90;;;9.90;99.90;;;;;;5041534;28;20082;-86
2022/03/16 06:00:42;;;;;;;19.08;14.27;;;9.90;99.90;;;;;;5037520;28;20084;-86
2022/03/16 06:03:13;;;;;;;18.17;13.60;;;10.00;99.90;;;;;;5040467;28;20105;-85
2022/03/16 06:05:46;;;;;;;16.40;14.15;;;10.10;99.90;;;;;;5046661;28;20496;-86
2022/03/16 06:08:12;;;;;;;22.38;14.02;;;10.10;99.90;;;;;;5050420;28;20108;-87
2022/03/16 06:10:43;;;;;;;19.73;13.55;;;10.20;99.90;;;;;;5071896;28;20125;-86
2022/03/16 06:13:16;;;;;;;15.27;13.67;;;10.20;99.90;;;;;;5068563;28;20023;-87
2022/03/16 06:15:47;;;;;;;18.52;13.63;;;10.30;99.90;;;;;;5085833;28;20089;-86
2022/03/16 06:18:13;;;;;;;17.10;14.88;;;10.40;99.90;;;;;;5063351;28;20086;-86
2022/03/16 06:20:42;;;;;;;16.40;13.82;;;10.50;99.90;;;;;;5087032;28;20478;-84
2022/03/16 06:23:20;;;;;;;;;;;;;;;;;;;;;
2022/03/16 06:25:52;;;;;;;19.50;15.35;;;10.70;99.90;;;;;;5077660;28;20037;-84
2022/03/16 06:28:19;;;;;;;19.60;14.25;;;10.70;99.90;;;;;;5084335;28;20093;-86
2022/03/16 06:30:45;;;;;;;19.73;14.38;;;10.70;99.90;;;;;;5060688;28;20660;-88
2022/03/16 06:33:10;;;;;;;21.63;15.05;;;10.70;99.90;;;;;;5080538;28;20031;-85
2022/03/16 06:35:36;;;;;;;18.95;14.77;;;10.80;99.90;;;;;;5077935;28;20473;-85
2022/03/16 06:38:15;;;;;;;23.08;15.98;;;10.80;99.90;;;;;;5081324;28;20017;-84
2022/03/16 06:40:59;;;;;;;20.02;15.23;;;10.80;99.90;;;;;;5065258;28;20028;-85
2022/03/16 06:43:25;;;;;;;18.90;14.40;;;10.80;99.90;;;;;;5080416;28;20021;-84
2022/03/16 06:45:51;;;;;;;21.60;15.27;;;10.90;99.90;;;;;;5066343;28;20037;-85
2022/03/16 06:48:23;;;;;;;16.80;14.98;;;11.00;99.90;;;;;;5080425;28;20493;-83
2022/03/16 06:50:51;;;;;;;19.30;14.82;;;11.10;99.90;;;;;;5065335;28;20029;-83
2022/03/16 06:53:20;;;;;;;17.80;15.88;;;11.20;99.90;;;;;;5080922;28;20082;-84
2022/03/16 06:55:46;;;;;;;18.85;15.48;;;11.30;99.90;;;;;;5083404;28;20036;-83
2022/03/16 06:58:15;;;;;;;18.95;16.08;;;11.30;99.90;;;;;;5064785;28;20028;-83
2022/03/16 07:00:41;;;;;;;21.30;15.50;;;11.40;99.90;;;;;;5064648;28;20044;-83
2022/03/16 07:03:07;;;;;;;16.90;14.55;;;11.40;99.90;;;;;;5083514;28;20012;-83
2022/03/16 07:05:35;;;;;;;19.77;15.63;;;11.50;99.90;;;;;;5086669;28;20036;-83
2022/03/16 07:08:11;;;;;;;18.20;15.15;;;11.60;99.90;;;;;;5064519;28;20042;-83
2022/03/16 07:10:39;;;;;;;18.50;14.40;;;11.70;99.90;;;;;;5081149;28;20074;-83
2022/03/16 07:13:34;;;;;;;23.70;16.25;;;11.70;99.90;;;;;;5068862;28;20044;-83
2022/03/16 07:16:02;;;;;;;17.25;15.45;;;11.80;99.90;;;;;;5082229;28;20040;-82
2022/03/16 07:18:28;;;;;;;16.75;14.90;;;11.80;99.90;;;;;;5083554;28;20020;-83
2022/03/16 07:20:57;;;;;;;20.58;16.52;;;11.90;99.90;;;;;;5087994;28;20081;-84
2022/03/16 07:23:23;;;;;;;18.55;15.52;;;11.90;99.90;;;;;;5084108;28;20020;-85
2022/03/16 07:25:50;;;;;;;24.88;18.00;;;11.90;99.90;;;;;;5089240;28;20383;-85
2022/03/16 07:28:18;;;;;;;21.58;17.33;;;12.00;99.90;;;;;;5067488;28;20023;-85
2022/03/16 07:30:47;;;;;;;23.45;17.58;;;12.10;99.90;;;;;;5082570;28;20081;-85
2022/03/16 07:33:13;;;;;;;23.58;16.70;;;12.20;99.90;;;;;;5085372;28;20024;-86
2022/03/16 07:35:42;;;;;;;18.83;16.80;;;12.20;99.90;;;;;;5057995;28;20234;-85
2022/03/16 07:38:08;;;;;;;21.88;17.05;;;12.30;99.90;;;;;;5083134;28;20089;-85
2022/03/16 07:40:35;;;;;;;39.13;25.55;;;12.30;99.90;;;;;;5090135;28;20020;-85
2022/03/16 07:43:02;;;;;;;28.58;20.85;;;12.40;99.90;;;;;;5082886;28;20001;-85
2022/03/16 07:45:28;;;;;;;29.17;20.38;;;12.50;99.90;;;;;;5074945;28;20447;-86
2022/03/16 07:47:56;;;;;;;22.98;18.15;;;12.50;99.90;;;;;;5085284;28;20020;-85
2022/03/16 07:50:26;;;;;;;22.98;15.93;;;12.60;99.90;;;;;;5086336;28;20451;-85
2022/03/16 07:53:08;;;;;;;30.30;16.27;;;12.80;99.90;;;;;;5086440;28;20017;-88
2022/03/16 07:55:37;;;;;;;;;;;12.90;99.90;;;;;;5078677;28;20025;-87
2022/03/16 07:58:03;;;;;;;18.77;16.80;;;12.90;99.90;;;;;;5069102;28;20381;-85
2022/03/16 08:00:29;;;;;;;23.77;17.73;;;12.90;99.90;;;;;;5078256;28;20029;-85
2022/03/16 08:02:55;;;;;;;20.05;16.48;;;12.80;99.90;;;;;;5084412;28;20052;-84
2022/03/16 08:05:27;;;;;;;21.17;15.60;;;12.90;99.90;;;;;;5089126;28;20486;-85
2022/03/16 08:07:54;;;;;;;27.63;16.85;;;12.80;99.90;;;;;;5065020;28;20030;-85
2022/03/16 08:10:20;;;;;;;22.02;16.67;;;12.90;99.90;;;;;;5088556;28;20028;-85
2022/03/16 08:12:50;;;;;;;20.00;17.02;;;12.90;99.90;;;;;;5081409;28;20074;-85
2022/03/16 08:15:18;;;;;;;23.83;16.77;;;12.90;99.90;;;;;;5062280;28;20054;-84
2022/03/16 08:17:44;;;;;;;28.45;17.92;;;13.00;99.90;;;;;;5080147;28;20024;-84
2022/03/16 08:20:10;;;;;;;25.85;19.27;;;13.20;99.90;;;;;;5083792;28;20032;-85
2022/03/16 08:22:42;;;;;;;26.25;19.40;;;13.40;99.90;;;;;;5054523;28;20024;-84
2022/03/16 08:25:14;;;;;;;27.15;19.00;;;13.50;99.90;;;;;;5083149;28;20054;-84
2022/03/16 08:27:40;;;;;;;;;;;13.70;99.90;;;;;;5083572;28;20047;-85
2022/03/16 08:30:08;;;;;;;22.67;17.20;;;13.80;99.90;;;;;;5084451;28;20555;-85
2022/03/16 08:32:34;;;;;;;26.48;17.73;;;13.90;99.90;;;;;;5084584;28;20048;-84
2022/03/16 08:35:00;;;;;;;21.70;16.08;;;13.90;99.90;;;;;;5087623;28;20255;-86
2022/03/16 08:37:26;;;;;;;22.25;17.40;;;13.80;99.90;;;;;;5086771;28;20008;-85
2022/03/16 08:39:55;;;;;;;27.48;17.60;;;13.70;99.90;;;;;;5063682;28;20029;-85
2022/03/16 08:42:30;;;;;;;32.13;21.50;;;13.70;99.90;;;;;;5082348;28;20466;-85
2022/03/16 08:44:56;;;;;;;33.85;22.73;;;13.60;99.90;;;;;;5081225;28;20021;-86
2022/03/16 08:47:22;;;;;;;35.53;23.98;;;13.60;99.90;;;;;;5082835;28;20053;-85
2022/03/16 08:49:57;;;;;;;42.95;29.33;;;13.60;99.90;;;;;;5086502;28;20372;-85
2022/03/16 08:52:26;;;;;;;81.05;41.25;;;13.70;99.90;;;;;;5082859;28;20028;-85
2022/03/16 08:55:01;;;;;;;312.42;98.50;;;13.80;99.90;;;;;;5067169;28;20044;-85
2022/03/16 08:57:28;;;;;;;81.03;40.60;;;13.90;99.90;;;;;;5083306;28;20023;-86
2022/03/16 08:59:55;;;;;;;45.97;29.02;;;14.00;99.90;;;;;;5066204;28;20032;-86
2022/03/16 09:02:25;;;;;;;34.55;28.95;;;14.10;99.90;;;;;;5082451;28;20032;-85
2022/03/16 09:04:52;;;;;;;40.47;27.42;;;14.20;99.90;;;;;;5057296;28;20402;-86
2022/03/16 09:07:18;;;;;;;35.20;27.67;;;14.10;99.90;;;;;;5082178;28;20063;-85
2022/03/16 09:09:47;;;;;;;38.63;29.30;;;14.20;99.90;;;;;;5085915;28;20067;-86
2022/03/16 09:12:13;;;;;;;41.33;31.13;;;14.20;99.90;;;;;;5063923;28;20123;-84
2022/03/16 09:14:45;;;;;;;41.72;31.33;;;14.30;99.90;;;;;;5084669;28;20024;-85
2022/03/16 09:17:17;;;;;;;;;;;14.30;99.90;;;;;;5082581;28;20524;-85
2022/03/16 09:19:48;;;;;;;53.50;30.98;;;14.50;99.90;;;;;;5085347;28;19912;-84
2022/03/16 09:22:35;;;;;;;39.90;31.45;;;14.50;99.90;;;;;;5064734;28;20035;-85
2022/03/16 09:25:01;;;;;;;46.05;32.67;;;14.70;99.90;;;;;;5067354;28;20479;-85
2022/03/16 09:27:27;;;;;;;44.20;31.95;;;15.10;99.90;;;;;;5082650;28;20085;-85
2022/03/16 09:29:55;;;;;;;41.35;31.05;;;15.20;99.90;;;;;;5084933;28;20130;-85
2022/03/16 09:32:21;;;;;;;45.25;31.85;;;15.00;99.90;;;;;;5081937;28;20024;-85
2022/03/16 09:34:48;;;;;;;47.40;34.47;;;15.10;99.90;;;;;;5084755;28;20013;-85
2022/03/16 09:37:14;;;;;;;44.33;32.25;;;15.20;99.90;;;;;;5064219;28;20020;-85
2022/03/16 09:39:41;;;;;;;42.47;30.98;;;15.20;99.90;;;;;;5084435;28;20052;-84
2022/03/16 09:42:09;;;;;;;40.58;32.58;;;15.10;99.90;;;;;;5064813;28;20016;-85
2022/03/16 09:44:36;;;;;;;42.88;32.47;;;15.30;99.90;;;;;;5078853;28;20028;-85
2022/03/16 09:47:03;;;;;;;51.30;33.25;;;15.40;99.90;;;;;;5087484;28;20036;-84
2022/03/16 09:49:30;;;;;;;49.17;34.20;;;15.20;99.90;;;;;;5067106;28;20471;-84
2022/03/16 09:51:56;;;;;;;56.33;40.17;;;14.80;99.90;;;;;;5083814;28;20467;-85
2022/03/16 09:54:25;;;;;;;42.63;30.38;;;14.40;99.90;;;;;;5083356;28;20016;-85
2022/03/16 09:56:54;;;;;;;43.10;31.20;;;14.30;99.90;;;;;;5089586;28;20479;-85
2022/03/16 09:59:21;;;;;;;45.20;30.65;;;13.90;99.90;;;;;;5084385;28;20043;-85
2022/03/16 10:01:47;;;;;;;39.30;29.13;;;13.70;99.90;;;;;;5077591;28;20049;-83
2022/03/16 10:04:29;;;;;;;38.53;28.58;;;13.50;99.90;;;;;;5082969;28;20024;-85
2022/03/16 10:06:55;;;;;;;32.78;25.98;;;13.20;99.90;;;;;;5091600;28;20031;-84
2022/03/16 10:15:18;;;;;;;37.72;25.50;;;12.60;99.90;;;;;;5049991;28;20055;-84
2022/03/16 10:18:06;;;;;;;37.28;24.83;;;12.50;99.90;;;;;;5088282;28;20372;-84
2022/03/16 10:20:37;;;;;;;30.67;24.42;;;12.60;99.90;;;;;;5068073;28;20027;-84
2022/03/16 10:23:17;;;;;;;28.48;22.70;;;12.70;99.90;;;;;;5079630;28;20021;-84
2022/03/16 10:25:45;;;;;;;31.58;23.63;;;12.60;99.90;;;;;;5077752;28;20040;-83
2022/03/16 10:28:17;;;;;;;33.17;25.52;;;12.50;99.90;;;;;;5079654;28;20483;-85
2022/03/16 10:30:52;;;;;;;33.83;24.92;;;12.40;99.90;;;;;;5084077;28;20036;-84
2022/03/16 10:33:22;;;;;;;27.85;22.00;;;12.40;99.90;;;;;;5080676;28;20051;-83
2022/03/16 10:36:37;;;;;;;26.35;21.95;;;12.50;99.90;;;;;;5085022;28;20024;-84
2022/03/16 10:39:03;;;;;;;34.97;21.50;;;12.80;99.90;;;;;;5076697;28;20036;-83
2022/03/16 10:47:54;;;;;;;33.22;22.90;;;12.80;99.90;;;;;;5081159;28;20044;-84
2022/03/16 10:50:20;;;;;;;26.05;20.45;;;12.60;99.90;;;;;;5082511;28;20108;-84
2022/03/16 10:53:14;;;;;;;34.80;21.50;;;12.50;99.90;;;;;;5064678;28;20032;-84
2022/03/16 10:55:41;;;;;;;27.13;20.60;;;12.60;99.90;;;;;;5076989;28;20467;-84
2022/03/16 10:58:08;;;;;;;26.35;20.65;;;12.80;99.90;;;;;;5064354;28;20482;-84
2022/03/16 11:00:39;;;;;;;28.35;20.13;;;12.60;99.90;;;;;;5083174;28;20483;-84
2022/03/16 11:03:07;;;;;;;24.67;19.83;;;12.50;99.90;;;;;;5080005;28;20406;-84
2022/03/16 11:06:31;;;;;;;24.40;19.23;;;12.40;99.90;;;;;;5075728;28;20065;-83
2022/03/16 11:08:59;;;;;;;23.10;18.85;;;12.30;99.90;;;;;;5052723;28;20043;-84
2022/03/16 11:14:27;;;;;;;23.95;18.48;;;12.20;99.90;;;;;;5081977;28;20039;-83
2022/03/16 11:17:10;;;;;;;28.83;19.42;;;12.20;99.90;;;;;;5071711;28;20039;-83
2022/03/16 11:19:44;;;;;;;26.55;18.38;;;12.20;99.90;;;;;;5086130;28;20021;-84
2022/03/16 11:22:32;;;;;;;21.65;18.02;;;12.20;99.90;;;;;;5062828;28;20033;-84
2022/03/16 11:25:19;;;;;;;26.52;18.17;;;12.30;99.90;;;;;;5079440;28;20103;-85
2022/03/16 11:28:08;;;;;;;26.63;18.67;;;12.60;99.90;;;;;;5078325;28;20498;-85
2022/03/16 11:30:37;;;;;;;27.92;19.17;;;12.70;99.90;;;;;;5082657;28;20048;-85
2022/03/16 11:33:10;;;;;;;26.90;20.75;;;12.70;99.90;;;;;;5065197;28;20020;-84
2022/03/16 11:35:50;;;;;;;29.95;21.77;;;12.70;99.90;;;;;;5076891;28;20036;-84
2022/03/16 11:38:21;;;;;;;32.38;24.30;;;12.60;99.90;;;;;;5062912;28;20020;-84
2022/03/16 11:40:51;;;;;;;32.53;24.65;;;12.60;99.90;;;;;;5061598;28;20398;-84
2022/03/16 11:43:24;;;;;;;38.67;27.77;;;12.50;99.90;;;;;;5078747;28;20070;-83
2022/03/16 11:46:00;;;;;;;37.70;29.05;;;12.40;99.90;;;;;;5082685;28;20024;-84
2022/03/16 11:48:33;;;;;;;41.97;31.75;;;12.30;99.90;;;;;;5082693;28;20032;-84
2022/03/16 11:51:20;;;;;;;43.97;33.47;;;12.10;99.90;;;;;;5085927;28;20020;-83
2022/03/16 11:54:07;;;;;;;49.33;39.97;;;11.80;99.90;;;;;;5060415;28;20070;-83
2022/03/16 11:56:39;;;;;;;56.65;41.75;;;11.80;99.90;;;;;;5067052;28;20024;-85
2022/03/16 11:59:18;;;;;;;51.67;40.45;;;11.60;99.90;;;;;;5078780;28;20032;-85
2022/03/16 12:02:05;;;;;;;61.35;43.65;;;11.70;99.90;;;;;;5084334;28;20047;-84
2022/03/16 12:04:39;;;;;;;64.47;47.17;;;11.80;99.90;;;;;;5084733;28;20020;-84
2022/03/16 12:07:05;;;;;;;70.57;48.85;;;11.80;99.90;;;;;;5071760;28;20071;-84
2022/03/16 12:10:01;;;;;;;74.78;55.38;;;11.90;99.90;;;;;;5071206;28;20048;-85
2022/03/16 12:15:32;;;;;;;77.38;53.00;;;12.20;99.90;;;;;;5066507;28;20148;-84
2022/03/16 12:17:58;;;;;;;72.25;53.33;;;12.60;99.90;;;;;;5061782;28;20526;-84
2022/03/16 12:20:53;;;;;;;73.78;54.92;;;12.90;99.90;;;;;;5088730;28;20032;-84
2022/03/16 12:23:42;;;;;;;83.25;61.42;;;13.10;99.90;;;;;;5083912;28;20122;-84
2022/03/16 12:26:08;;;;;;;81.55;58.38;;;12.90;99.90;;;;;;5055562;28;20052;-84
2022/03/16 12:31:19;;;;;;;79.60;58.78;;;13.00;99.90;;;;;;5085773;28;20047;-84
2022/03/16 12:34:01;;;;;;;83.75;65.78;;;13.40;99.90;;;;;;5082617;28;20486;-85
2022/03/16 12:36:36;;;;;;;90.70;60.17;;;13.30;99.90;;;;;;5087462;28;20023;-85
2022/03/16 12:39:08;;;;;;;91.43;64.38;;;13.50;99.90;;;;;;5082667;28;20024;-85
2022/03/16 12:44:42;;;;;;;82.53;61.53;;;13.90;99.90;;;;;;5085851;28;20030;-84
2022/03/16 12:47:16;;;;;;;83.00;61.17;;;14.10;99.90;;;;;;5082864;28;20123;-84
2022/03/16 12:49:46;;;;;;;83.78;61.55;;;14.00;99.90;;;;;;5085917;28;20414;-84
2022/03/16 12:52:12;;;;;;;81.55;60.70;;;13.70;99.90;;;;;;5083278;28;20558;-84
2022/03/16 12:54:42;;;;;;;95.70;60.03;;;13.80;99.90;;;;;;5067469;28;20163;-85
2022/03/16 12:57:15;;;;;;;89.57;62.72;;;13.70;99.90;;;;;;5083025;28;20017;-85
2022/03/16 12:59:48;;;;;;;87.43;62.65;;;13.90;99.90;;;;;;5073318;28;20102;-84
2022/03/16 13:02:18;;;;;;;86.65;68.78;;;14.00;99.90;;;;;;5064438;28;20028;-84
2022/03/16 13:04:52;;;;;;;87.95;66.30;;;13.80;99.90;;;;;;5078156;28;20024;-83
2022/03/16 13:07:20;;;;;;;91.88;67.05;;;13.80;99.90;;;;;;5082702;28;20036;-85
2022/03/16 13:09:46;;;;;;;85.05;67.15;;;14.00;99.90;;;;;;5076461;28;20047;-84
2022/03/16 13:12:15;;;;;;;90.85;65.22;;;14.10;99.90;;;;;;5082837;28;20047;-85
2022/03/16 13:14:51;;;;;;;90.05;67.43;;;14.30;99.90;;;;;;5067429;28;20060;-85
2022/03/16 13:17:36;;;;;;;96.57;66.53;;;14.50;99.90;;;;;;5087582;28;20031;-84
2022/03/16 13:20:06;;;;;;;85.68;64.95;;;15.00;99.90;;;;;;5086184;28;20016;-87
2022/03/16 13:22:36;;;;;;;85.47;64.10;;;15.10;99.90;;;;;;5081110;28;20024;-85
2022/03/16 13:25:03;;;;;;;93.13;70.90;;;15.80;99.90;;;;;;5092279;28;20526;-86
2022/03/16 13:27:36;;;;;;;96.70;71.15;;;16.40;99.90;;;;;;5082171;28;20610;-83
2022/03/16 13:30:05;;;;;;;83.60;63.53;;;17.10;99.90;;;;;;5084209;28;20048;-82
2022/03/16 13:32:35;;;;;;;85.30;61.80;;;17.90;99.90;;;;;;5083304;28;20390;-85
2022/03/16 13:35:21;;;;;;;84.07;61.38;;;18.20;99.90;;;;;;5068340;28;20079;-82
2022/03/16 13:37:59;;;;;;;84.25;62.72;;;18.70;99.90;;;;;;5080225;28;20024;-82
2022/03/16 13:40:40;;;;;;;86.88;66.90;;;18.80;99.90;;;;;;5084771;28;20038;-83
2022/03/16 13:43:08;;;;;;;88.35;67.03;;;17.60;99.90;;;;;;5081058;28;20437;-83
2022/03/16 13:45:47;;;;;;;93.53;71.90;;;17.10;99.90;;;;;;5077274;28;20029;-81
2022/03/16 13:48:44;;;;;;;115.18;77.68;;;17.10;99.90;;;;;;5084443;28;20020;-81
2022/03/16 13:51:21;;;;;;;104.60;74.53;;;16.10;99.90;;;;;;5019688;28;20113;-80
2022/03/16 13:53:50;;;;;;;102.70;75.28;;;16.00;99.90;;;;;;5078190;28;20028;-81
2022/03/16 13:56:22;;;;;;;107.07;79.28;;;16.10;99.90;;;;;;5079227;28;20023;-80
2022/03/16 13:58:54;;;;;;;98.30;74.80;;;15.70;99.90;;;;;;5080255;28;20024;-82
2022/03/16 14:01:43;;;;;;;99.22;75.55;;;15.70;99.90;;;;;;5078588;28;20503;-82
2022/03/16 14:04:18;;;;;;;113.35;85.28;;;16.30;99.90;;;;;;5062738;28;20043;-81
2022/03/16 14:06:58;;;;;;;116.53;88.03;;;16.00;99.90;;;;;;5079607;28;20037;-79
2022/03/16 14:09:29;;;;;;;119.80;88.95;;;15.90;99.90;;;;;;5079709;28;20052;-80
2022/03/16 14:11:57;;;;;;;114.85;87.18;;;15.50;99.90;;;;;;5084279;28;20024;-80
2022/03/16 14:14:24;;;;;;;115.00;86.43;;;15.50;99.90;;;;;;5065890;28;20028;-79
2022/03/16 14:16:52;;;;;;;114.80;87.32;;;15.40;99.90;;;;;;5080568;28;20047;-81
2022/03/16 14:19:46;;;;;;;112.07;86.47;;;15.40;99.90;;;;;;5079481;28;20027;-82
2022/03/16 14:22:14;;;;;;;109.93;88.22;;;15.30;99.90;;;;;;5087281;28;20032;-79
2022/03/16 14:24:41;;;;;;;128.07;99.30;;;15.50;99.90;;;;;;5065734;28;20127;-80
2022/03/16 14:27:15;;;;;;;127.00;101.25;;;14.70;99.90;;;;;;5081018;28;20028;-81
2022/03/16 14:29:52;;;;;;;137.07;101.22;;;14.20;99.90;;;;;;5075909;28;20107;-81
2022/03/16 14:32:20;;;;;;;137.00;101.63;;;13.90;99.90;;;;;;5078206;28;20020;-78
2022/03/16 14:35:01;;;;;;;140.27;104.90;;;13.80;99.90;;;;;;5078842;28;20028;-80
2022/03/16 14:37:28;;;;;;;144.73;103.88;;;13.70;99.90;;;;;;5084852;28;20714;-80
2022/03/16 14:40:00;;;;;;;144.43;106.68;;;13.50;99.90;;;;;;5078130;28;20387;-79
2022/03/16 14:42:25;;;;;;;145.13;108.95;;;13.40;99.90;;;;;;5080434;28;20063;-79
2022/03/16 14:44:51;;;;;;;148.25;107.30;;;12.90;99.90;;;;;;5083698;28;20072;-80
2022/03/16 14:47:18;;;;;;;149.45;109.72;;;12.60;99.90;;;;;;5080310;28;20036;-80
2022/03/16 14:49:50;;;;;;;154.57;113.00;;;12.40;99.90;;;;;;5075354;28;20024;-79
2022/03/16 14:52:16;;;;;;;161.30;113.30;;;12.20;99.90;;;;;;5067697;28;20028;-79
2022/03/16 14:55:01;;;;;;;168.50;113.70;;;12.10;99.90;;;;;;5051615;28;20082;-80
2022/03/16 14:57:27;;;;;;;157.00;110.45;;;12.00;99.90;;;;;;5081007;28;20024;-79
2022/03/16 14:59:56;;;;;;;151.63;112.32;;;12.00;99.90;;;;;;5083808;28;20458;-80
2022/03/16 15:02:23;;;;;;;158.18;116.82;;;12.00;99.90;;;;;;5080692;28;20056;-81
2022/03/16 15:04:49;;;;;;;156.02;116.18;;;11.80;99.90;;;;;;5083900;28;20502;-80
2022/03/16 15:07:38;;;;;;;164.20;116.40;;;11.60;99.90;;;;;;5085746;28;20036;-80
2022/03/16 15:10:06;;;;;;;163.82;117.82;;;11.40;99.90;;;;;;5059293;28;20097;-80
2022/03/16 15:12:32;;;;;;;159.00;119.20;;;11.30;99.90;;;;;;5063900;28;20035;-80
2022/03/16 15:14:58;;;;;;;163.75;118.05;;;11.30;99.90;;;;;;5083631;28;20031;-80
2022/03/16 15:17:25;;;;;;;167.07;121.05;;;11.20;99.90;;;;;;5080638;28;20032;-80
2022/03/16 15:19:59;;;;;;;164.50;114.18;;;11.20;99.90;;;;;;5063913;28;20024;-81
2022/03/16 15:22:28;;;;;;;169.63;118.30;;;11.20;99.90;;;;;;5063094;28;20052;-81
2022/03/16 15:24:54;;;;;;;166.40;119.57;;;11.20;99.90;;;;;;5087636;28;20056;-81
2022/03/16 15:27:21;;;;;;;165.32;117.70;;;11.20;99.90;;;;;;5083940;28;20064;-80
2022/03/16 15:29:48;;;;;;;170.05;117.70;;;11.10;99.90;;;;;;5090598;28;20017;-80
2022/03/16 15:32:14;;;;;;;159.65;116.82;;;11.10;99.90;;;;;;5081921;28;20446;-81
2022/03/16 15:34:41;;;;;;;164.05;119.03;;;11.20;99.90;;;;;;5086138;28;20379;-81
2022/03/16 15:37:08;;;;;;;162.77;117.25;;;11.20;99.90;;;;;;5066049;28;20024;-79
2022/03/16 15:39:36;;;;;;;163.77;119.93;;;11.20;99.90;;;;;;5080745;28;20034;-79
2022/03/16 15:44:56;;;;;;;172.52;118.10;;;10.90;99.90;;;;;;5082416;28;20449;-79
2022/03/16 15:47:22;;;;;;;173.85;118.35;;;10.90;99.90;;;;;;5083617;28;20035;-79
2022/03/16 15:49:48;;;;;;;155.75;118.00;;;10.90;99.90;;;;;;5070094;28;20535;-79
2022/03/16 15:52:43;;;;;;;163.20;116.85;;;10.90;99.90;;;;;;5065710;28;20029;-78
2022/03/16 15:55:18;;;;;;;162.20;117.43;;;10.90;99.90;;;;;;5068984;28;20150;-79
2022/03/16 15:57:47;;;;;;;168.50;119.30;;;11.00;99.90;;;;;;5082446;28;20028;-79
2022/03/16 16:00:15;;;;;;;166.07;116.40;;;11.00;99.90;;;;;;5086965;28;20024;-80
2022/03/16 16:02:51;;;;;;;156.52;116.25;;;11.00;99.90;;;;;;5082905;28;20158;-80
2022/03/16 16:05:17;;;;;;;158.05;114.45;;;11.10;99.90;;;;;;5085195;28;20589;-78
2022/03/16 16:07:43;;;;;;;171.00;116.72;;;11.10;99.90;;;;;;5085728;28;20036;-79
2022/03/16 16:10:15;;;;;;;159.73;116.47;;;11.10;99.90;;;;;;5086272;28;20049;-80
2022/03/16 16:12:42;;;;;;;156.20;118.07;;;11.10;99.90;;;;;;5082498;28;20039;-79
2022/03/16 16:15:16;;;;;;;159.57;116.47;;;11.00;99.90;;;;;;5085332;28;20020;-80
2022/03/16 16:17:43;;;;;;;170.85;118.80;;;11.00;99.90;;;;;;5085010;28;20063;-80
2022/03/16 16:20:15;;;;;;;166.85;119.55;;;10.90;99.90;;;;;;5080773;28;20020;-80
2022/03/16 16:22:48;;;;;;;170.55;122.03;;;10.90;99.90;;;;;;5085329;28;20055;-82
2022/03/16 16:25:14;;;;;;;167.88;118.03;;;10.80;99.90;;;;;;5069261;28;20409;-82
2022/03/16 16:27:40;;;;;;;166.93;119.15;;;10.80;99.90;;;;;;5065155;28;20056;-80
2022/03/16 16:30:19;;;;;;;149.88;111.10;;;10.80;99.90;;;;;;5085165;28;20016;-83
2022/03/16 16:32:51;;;;;;;158.77;114.20;;;10.90;99.90;;;;;;5085405;28;20028;-81
2022/03/16 16:35:18;;;;;;;157.18;115.63;;;10.90;99.90;;;;;;5084635;28;20024;-80
2022/03/16 16:38:08;;;;;;;161.95;115.25;;;10.90;99.90;;;;;;5090359;28;20020;-80
2022/03/16 16:40:33;;;;;;;151.55;111.65;;;10.80;99.90;;;;;;5080664;28;20028;-80
2022/03/16 16:43:14;;;;;;;157.43;112.40;;;10.80;99.90;;;;;;5081123;28;20078;-79
2022/03/16 16:45:56;;;;;;;151.88;108.30;;;10.80;99.90;;;;;;5079357;28;20064;-79
2022/03/16 16:48:24;;;;;;;163.53;113.30;;;10.90;99.90;;;;;;5081768;28;20013;-79
2022/03/16 16:50:55;;;;;;;154.77;110.85;;;10.90;99.90;;;;;;5086339;28;20024;-79
2022/03/16 16:53:24;;;;;;;178.10;121.38;;;10.80;99.90;;;;;;5070264;28;20032;-79
2022/03/16 16:56:03;;;;;;;170.00;120.88;;;10.70;99.90;;;;;;5080403;28;20114;-79
2022/03/16 16:58:29;;;;;;;168.32;118.38;;;10.70;99.90;;;;;;5086806;28;20039;-80
2022/03/16 17:00:55;;;;;;;170.20;120.28;;;10.50;99.90;;;;;;5085988;28;20028;-81
2022/03/16 17:03:23;;;;;;;172.40;118.38;;;10.40;99.90;;;;;;5082646;28;20019;-79
2022/03/16 17:05:51;;;;;;;176.73;124.53;;;10.40;99.90;;;;;;5085985;28;20016;-80
2022/03/16 17:08:17;;;;;;;179.23;131.00;;;10.20;99.90;;;;;;5081185;28;20094;-79
2022/03/16 17:10:47;;;;;;;173.80;126.03;;;10.10;99.90;;;;;;5087785;28;20032;-78
2022/03/16 17:13:14;;;;;;;175.10;121.55;;;10.10;99.90;;;;;;5096763;28;20027;-80
2022/03/16 17:15:42;;;;;;;178.68;126.75;;;10.00;99.90;;;;;;5071856;28;20097;-81
2022/03/16 17:18:18;;;;;;;187.25;128.70;;;10.00;99.90;;;;;;5075274;28;20104;-80
2022/03/16 17:20:49;;;;;;;180.90;130.23;;;9.90;99.90;;;;;;5079587;28;20059;-80
2022/03/16 17:23:18;;;;;;;179.75;130.05;;;9.90;99.90;;;;;;5081494;28;20017;-81
2022/03/16 17:25:48;;;;;;;198.30;134.05;;;9.90;99.90;;;;;;5082375;28;20024;-82
2022/03/16 17:28:14;;;;;;;200.73;143.68;;;9.80;99.90;;;;;;5081303;28;20024;-82
2022/03/16 17:30:47;;;;;;;201.75;138.38;;;9.80;99.90;;;;;;5086233;28;20024;-82
2022/03/16 17:33:19;;;;;;;;;;;9.70;99.90;;;;;;5087091;28;20078;-81
2022/03/16 17:35:47;;;;;;;193.05;136.98;;;9.70;99.90;;;;;;5072861;28;20267;-81
2022/03/16 17:38:18;;;;;;;198.55;135.23;;;9.70;99.90;;;;;;5086170;28;20027;-81
2022/03/16 17:40:55;;;;;;;176.85;130.48;;;9.70;99.90;;;;;;5084457;28;20023;-81
2022/03/16 17:46:18;;;;;;;186.82;127.30;;;9.60;99.90;;;;;;5074066;28;20090;-81
2022/03/16 17:49:01;;;;;;;189.35;134.13;;;9.60;99.90;;;;;;5084344;28;20024;-81
2022/03/16 17:51:33;;;;;;;191.05;131.55;;;9.60;99.90;;;;;;5083301;28;20020;-81
2022/03/16 17:54:00;;;;;;;207.48;138.80;;;9.50;99.90;;;;;;5072756;28;20029;-82
2022/03/16 17:59:10;;;;;;;200.27;135.90;;;9.40;99.90;;;;;;5080739;28;20047;-81
2022/03/16 18:01:36;;;;;;;207.93;136.43;;;9.30;99.90;;;;;;5075112;28;20394;-81
2022/03/16 18:04:02;;;;;;;190.98;137.45;;;9.30;99.90;;;;;;5079170;28;20017;-80
2022/03/16 18:06:29;;;;;;;197.55;137.75;;;9.20;99.90;;;;;;5052395;28;20040;-81